sensor_id;sensor_type;location;lat;lon;timestamp;P1;durP1;ratioP1;P2;durP2;ratioP2
19251;SDS011;9760;50.944;5.304;2023-04-24T00:00:55;16.33;;;7.40;;
19251;SDS011;9760;50.944;5.304;2023-04-24T00:03:26;18.20;;;7.93;;
19251;SDS011;9760;50.944;5.304;2023-04-24T00:05:53;21.53;;;8.43;;
19251;SDS011;9760;50.944;5.304;2023-04-24T00:08:19;20.13;;;8.53;;
19251;SDS011;9760;50.944;5.304;2023-04-24T00:10:45;14.47;;;8.33;;
19251;SDS011;9760;50.944;5.304;2023-04-24T00:13:11;14.30;;;7.57;;
19251;SDS011;9760;50.944;5.304;2023-04-24T00:15:36;19.87;;;9.00;;
19251;SDS011;9760;50.944;5.304;2023-04-24T00:18:02;19.83;;;8.10;;
19251;SDS011;9760;50.944;5.304;2023-04-24T00:20:28;15.13;;;8.30;;
19251;SDS011;9760;50.944;5.304;2023-04-24T00:22:58;17.63;;;7.77;;
19251;SDS011;9760;50.944;5.304;2023-04-24T00:25:24;21.93;;;8.50;;
19251;SDS011;9760;50.944;5.304;2023-04-24T00:27:49;20.70;;;8.43;;
19251;SDS011;9760;50.944;5.304;2023-04-24T00:30:15;15.63;;;8.07;;
19251;SDS011;9760;50.944;5.304;2023-04-24T00:32:41;20.23;;;8.73;;
19251;SDS011;9760;50.944;5.304;2023-04-24T00:35:06;15.50;;;8.73;;
19251;SDS011;9760;50.944;5.304;2023-04-24T00:37:32;25.33;;;9.13;;
19251;SDS011;9760;50.944;5.304;2023-04-24T00:39:58;18.03;;;9.07;;
19251;SDS011;9760;50.944;5.304;2023-04-24T00:42:24;18.90;;;9.97;;
19251;SDS011;9760;50.944;5.304;2023-04-24T00:44:50;25.40;;;10.00;;
19251;SDS011;9760;50.944;5.304;2023-04-24T00:47:16;27.33;;;10.80;;
19251;SDS011;9760;50.944;5.304;2023-04-24T00:49:43;20.93;;;10.30;;
19251;SDS011;9760;50.944;5.304;2023-04-24T00:52:09;21.07;;;10.70;;
19251;SDS011;9760;50.944;5.304;2023-04-24T00:54:35;22.70;;;10.43;;
19251;SDS011;9760;50.944;5.304;2023-04-24T00:57:02;27.73;;;10.10;;
19251;SDS011;9760;50.944;5.304;2023-04-24T00:59:28;28.87;;;10.87;;
19251;SDS011;9760;50.944;5.304;2023-04-24T01:01:55;25.37;;;11.10;;
19251;SDS011;9760;50.944;5.304;2023-04-24T01:04:21;25.90;;;11.07;;
19251;SDS011;9760;50.944;5.304;2023-04-24T01:06:47;17.60;;;10.20;;
19251;SDS011;9760;50.944;5.304;2023-04-24T01:09:14;22.80;;;11.23;;
19251;SDS011;9760;50.944;5.304;2023-04-24T01:11:41;25.67;;;10.93;;
19251;SDS011;9760;50.944;5.304;2023-04-24T01:14:08;21.90;;;10.40;;
19251;SDS011;9760;50.944;5.304;2023-04-24T01:16:34;20.27;;;10.60;;
19251;SDS011;9760;50.944;5.304;2023-04-24T01:19:00;23.73;;;11.13;;
19251;SDS011;9760;50.944;5.304;2023-04-24T01:21:27;28.03;;;11.50;;
19251;SDS011;9760;50.944;5.304;2023-04-24T01:23:55;25.83;;;10.97;;
19251;SDS011;9760;50.944;5.304;2023-04-24T01:26:21;23.67;;;11.90;;
19251;SDS011;9760;50.944;5.304;2023-04-24T01:28:48;31.57;;;11.27;;
19251;SDS011;9760;50.944;5.304;2023-04-24T01:31:14;27.77;;;10.73;;
19251;SDS011;9760;50.944;5.304;2023-04-24T01:33:41;27.87;;;11.30;;
19251;SDS011;9760;50.944;5.304;2023-04-24T01:36:08;20.50;;;9.77;;
19251;SDS011;9760;50.944;5.304;2023-04-24T01:38:35;23.70;;;10.17;;
19251;SDS011;9760;50.944;5.304;2023-04-24T01:41:01;28.77;;;11.07;;
19251;SDS011;9760;50.944;5.304;2023-04-24T01:43:27;22.23;;;10.53;;
19251;SDS011;9760;50.944;5.304;2023-04-24T01:45:53;19.83;;;10.50;;
19251;SDS011;9760;50.944;5.304;2023-04-24T01:48:19;28.60;;;11.03;;
19251;SDS011;9760;50.944;5.304;2023-04-24T01:50:44;22.23;;;10.90;;
19251;SDS011;9760;50.944;5.304;2023-04-24T01:53:10;28.50;;;10.20;;
19251;SDS011;9760;50.944;5.304;2023-04-24T01:55:36;27.23;;;11.47;;
19251;SDS011;9760;50.944;5.304;2023-04-24T01:58:02;20.07;;;10.23;;
19251;SDS011;9760;50.944;5.304;2023-04-24T02:00:27;26.13;;;10.87;;
19251;SDS011;9760;50.944;5.304;2023-04-24T02:02:53;22.53;;;10.30;;
19251;SDS011;9760;50.944;5.304;2023-04-24T02:05:19;21.40;;;11.00;;
19251;SDS011;9760;50.944;5.304;2023-04-24T02:07:44;20.23;;;10.03;;
19251;SDS011;9760;50.944;5.304;2023-04-24T02:10:10;25.70;;;11.80;;
19251;SDS011;9760;50.944;5.304;2023-04-24T02:12:36;24.80;;;11.53;;
19251;SDS011;9760;50.944;5.304;2023-04-24T02:15:02;25.47;;;11.40;;
19251;SDS011;9760;50.944;5.304;2023-04-24T02:17:28;30.67;;;11.80;;
19251;SDS011;9760;50.944;5.304;2023-04-24T02:19:53;30.63;;;11.93;;
19251;SDS011;9760;50.944;5.304;2023-04-24T02:22:19;23.37;;;12.10;;
19251;SDS011;9760;50.944;5.304;2023-04-24T02:24:45;24.93;;;10.83;;
19251;SDS011;9760;50.944;5.304;2023-04-24T02:27:10;22.70;;;11.83;;
19251;SDS011;9760;50.944;5.304;2023-04-24T02:29:36;23.07;;;11.00;;
19251;SDS011;9760;50.944;5.304;2023-04-24T02:32:02;20.67;;;11.43;;
19251;SDS011;9760;50.944;5.304;2023-04-24T02:34:28;20.87;;;11.10;;
19251;SDS011;9760;50.944;5.304;2023-04-24T02:36:53;23.87;;;11.20;;
19251;SDS011;9760;50.944;5.304;2023-04-24T02:39:19;22.23;;;12.17;;
19251;SDS011;9760;50.944;5.304;2023-04-24T02:41:45;21.30;;;10.60;;
19251;SDS011;9760;50.944;5.304;2023-04-24T02:44:11;22.57;;;11.87;;
19251;SDS011;9760;50.944;5.304;2023-04-24T02:46:36;22.57;;;12.10;;
19251;SDS011;9760;50.944;5.304;2023-04-24T02:49:02;18.20;;;11.20;;
19251;SDS011;9760;50.944;5.304;2023-04-24T02:51:28;27.10;;;11.47;;
19251;SDS011;9760;50.944;5.304;2023-04-24T02:53:54;29.73;;;11.77;;
19251;SDS011;9760;50.944;5.304;2023-04-24T02:56:20;23.23;;;10.80;;
19251;SDS011;9760;50.944;5.304;2023-04-24T02:58:46;22.23;;;11.80;;
19251;SDS011;9760;50.944;5.304;2023-04-24T03:01:11;23.87;;;11.60;;
19251;SDS011;9760;50.944;5.304;2023-04-24T03:03:38;19.60;;;11.33;;
19251;SDS011;9760;50.944;5.304;2023-04-24T03:06:04;23.00;;;10.90;;
19251;SDS011;9760;50.944;5.304;2023-04-24T03:08:33;23.87;;;11.03;;
19251;SDS011;9760;50.944;5.304;2023-04-24T03:11:00;22.73;;;11.77;;
19251;SDS011;9760;50.944;5.304;2023-04-24T03:13:25;23.60;;;12.03;;
19251;SDS011;9760;50.944;5.304;2023-04-24T03:15:51;25.70;;;12.67;;
19251;SDS011;9760;50.944;5.304;2023-04-24T03:18:17;23.53;;;11.63;;
19251;SDS011;9760;50.944;5.304;2023-04-24T03:20:45;24.17;;;11.37;;
19251;SDS011;9760;50.944;5.304;2023-04-24T03:23:12;20.40;;;11.70;;
19251;SDS011;9760;50.944;5.304;2023-04-24T03:25:37;21.23;;;11.33;;
19251;SDS011;9760;50.944;5.304;2023-04-24T03:28:03;28.23;;;12.60;;
19251;SDS011;9760;50.944;5.304;2023-04-24T03:30:29;28.20;;;13.03;;
19251;SDS011;9760;50.944;5.304;2023-04-24T03:32:55;26.20;;;12.63;;
19251;SDS011;9760;50.944;5.304;2023-04-24T03:35:21;28.20;;;12.83;;
19251;SDS011;9760;50.944;5.304;2023-04-24T03:37:47;30.00;;;13.37;;
19251;SDS011;9760;50.944;5.304;2023-04-24T03:40:12;26.33;;;12.67;;
19251;SDS011;9760;50.944;5.304;2023-04-24T03:42:38;22.33;;;12.93;;
19251;SDS011;9760;50.944;5.304;2023-04-24T03:45:04;23.07;;;12.83;;
19251;SDS011;9760;50.944;5.304;2023-04-24T03:47:30;28.30;;;12.83;;
19251;SDS011;9760;50.944;5.304;2023-04-24T03:49:56;26.23;;;12.53;;
19251;SDS011;9760;50.944;5.304;2023-04-24T03:52:21;21.97;;;12.10;;
19251;SDS011;9760;50.944;5.304;2023-04-24T03:54:47;26.40;;;11.63;;
19251;SDS011;9760;50.944;5.304;2023-04-24T03:57:13;28.03;;;12.60;;
19251;SDS011;9760;50.944;5.304;2023-04-24T03:59:38;23.13;;;12.00;;
19251;SDS011;9760;50.944;5.304;2023-04-24T04:02:04;21.73;;;11.47;;
19251;SDS011;9760;50.944;5.304;2023-04-24T04:04:30;26.37;;;11.77;;
19251;SDS011;9760;50.944;5.304;2023-04-24T04:06:55;22.97;;;12.03;;
19251;SDS011;9760;50.944;5.304;2023-04-24T04:09:21;25.63;;;12.30;;
19251;SDS011;9760;50.944;5.304;2023-04-24T04:11:46;20.03;;;11.13;;
19251;SDS011;9760;50.944;5.304;2023-04-24T04:14:12;21.23;;;10.93;;
19251;SDS011;9760;50.944;5.304;2023-04-24T04:16:38;23.67;;;12.03;;
19251;SDS011;9760;50.944;5.304;2023-04-24T04:19:03;23.67;;;11.13;;
19251;SDS011;9760;50.944;5.304;2023-04-24T04:21:30;21.93;;;10.50;;
19251;SDS011;9760;50.944;5.304;2023-04-24T04:23:57;25.23;;;10.87;;
19251;SDS011;9760;50.944;5.304;2023-04-24T04:26:22;24.97;;;11.30;;
19251;SDS011;9760;50.944;5.304;2023-04-24T04:28:50;23.10;;;10.47;;
19251;SDS011;9760;50.944;5.304;2023-04-24T04:31:19;20.77;;;10.07;;
19251;SDS011;9760;50.944;5.304;2023-04-24T04:33:45;20.57;;;10.10;;
19251;SDS011;9760;50.944;5.304;2023-04-24T04:36:11;23.70;;;9.80;;
19251;SDS011;9760;50.944;5.304;2023-04-24T04:38:37;22.80;;;10.97;;
19251;SDS011;9760;50.944;5.304;2023-04-24T04:41:03;21.43;;;11.30;;
19251;SDS011;9760;50.944;5.304;2023-04-24T04:43:28;21.30;;;10.90;;
19251;SDS011;9760;50.944;5.304;2023-04-24T04:45:55;23.23;;;11.17;;
19251;SDS011;9760;50.944;5.304;2023-04-24T04:48:22;22.90;;;11.20;;
19251;SDS011;9760;50.944;5.304;2023-04-24T04:50:48;23.97;;;11.10;;
19251;SDS011;9760;50.944;5.304;2023-04-24T04:53:13;22.80;;;11.33;;
19251;SDS011;9760;50.944;5.304;2023-04-24T04:55:39;22.77;;;11.73;;
19251;SDS011;9760;50.944;5.304;2023-04-24T04:58:05;22.33;;;10.90;;
19251;SDS011;9760;50.944;5.304;2023-04-24T05:00:30;25.23;;;11.63;;
19251;SDS011;9760;50.944;5.304;2023-04-24T05:03:00;23.67;;;10.83;;
19251;SDS011;9760;50.944;5.304;2023-04-24T05:05:26;23.30;;;10.53;;
19251;SDS011;9760;50.944;5.304;2023-04-24T05:07:52;22.30;;;9.27;;
19251;SDS011;9760;50.944;5.304;2023-04-24T05:10:17;20.13;;;9.40;;
19251;SDS011;9760;50.944;5.304;2023-04-24T05:12:43;17.93;;;9.30;;
19251;SDS011;9760;50.944;5.304;2023-04-24T05:15:09;15.97;;;9.63;;
19251;SDS011;9760;50.944;5.304;2023-04-24T05:17:35;20.23;;;9.37;;
19251;SDS011;9760;50.944;5.304;2023-04-24T05:20:01;17.83;;;9.40;;
19251;SDS011;9760;50.944;5.304;2023-04-24T05:22:29;19.60;;;8.83;;
19251;SDS011;9760;50.944;5.304;2023-04-24T05:24:55;18.80;;;9.27;;
19251;SDS011;9760;50.944;5.304;2023-04-24T05:27:21;19.43;;;10.40;;
19251;SDS011;9760;50.944;5.304;2023-04-24T05:29:47;18.53;;;10.10;;
19251;SDS011;9760;50.944;5.304;2023-04-24T05:32:12;19.37;;;9.87;;
19251;SDS011;9760;50.944;5.304;2023-04-24T05:34:38;20.07;;;9.43;;
19251;SDS011;9760;50.944;5.304;2023-04-24T05:37:04;19.70;;;9.63;;
19251;SDS011;9760;50.944;5.304;2023-04-24T05:39:33;13.97;;;8.27;;
19251;SDS011;9760;50.944;5.304;2023-04-24T05:42:00;10.90;;;6.93;;
19251;SDS011;9760;50.944;5.304;2023-04-24T05:44:26;12.80;;;7.30;;
19251;SDS011;9760;50.944;5.304;2023-04-24T05:46:52;11.40;;;6.50;;
19251;SDS011;9760;50.944;5.304;2023-04-24T05:49:17;9.83;;;6.37;;
19251;SDS011;9760;50.944;5.304;2023-04-24T05:51:43;10.60;;;6.60;;
19251;SDS011;9760;50.944;5.304;2023-04-24T05:54:09;10.87;;;6.90;;
19251;SDS011;9760;50.944;5.304;2023-04-24T05:56:37;14.80;;;6.77;;
19251;SDS011;9760;50.944;5.304;2023-04-24T05:59:02;14.83;;;7.47;;
19251;SDS011;9760;50.944;5.304;2023-04-24T06:01:28;14.67;;;7.67;;
19251;SDS011;9760;50.944;5.304;2023-04-24T06:03:54;14.63;;;7.70;;
19251;SDS011;9760;50.944;5.304;2023-04-24T06:06:20;19.30;;;9.57;;
19251;SDS011;9760;50.944;5.304;2023-04-24T06:08:46;19.40;;;8.80;;
19251;SDS011;9760;50.944;5.304;2023-04-24T06:11:11;20.43;;;9.40;;
19251;SDS011;9760;50.944;5.304;2023-04-24T06:13:37;18.63;;;9.20;;
19251;SDS011;9760;50.944;5.304;2023-04-24T06:16:02;17.37;;;8.80;;
19251;SDS011;9760;50.944;5.304;2023-04-24T06:18:28;20.57;;;9.43;;
19251;SDS011;9760;50.944;5.304;2023-04-24T06:20:54;20.00;;;9.53;;
19251;SDS011;9760;50.944;5.304;2023-04-24T06:23:20;19.10;;;10.50;;
19251;SDS011;9760;50.944;5.304;2023-04-24T06:25:46;26.00;;;10.63;;
19251;SDS011;9760;50.944;5.304;2023-04-24T06:28:12;29.37;;;9.23;;
19251;SDS011;9760;50.944;5.304;2023-04-24T06:30:38;21.67;;;10.30;;
19251;SDS011;9760;50.944;5.304;2023-04-24T06:33:03;17.27;;;8.67;;
19251;SDS011;9760;50.944;5.304;2023-04-24T06:35:29;18.10;;;8.07;;
19251;SDS011;9760;50.944;5.304;2023-04-24T06:37:55;15.50;;;8.20;;
19251;SDS011;9760;50.944;5.304;2023-04-24T06:40:21;22.00;;;8.60;;
19251;SDS011;9760;50.944;5.304;2023-04-24T06:42:47;17.93;;;8.63;;
19251;SDS011;9760;50.944;5.304;2023-04-24T06:45:13;14.47;;;8.13;;
19251;SDS011;9760;50.944;5.304;2023-04-24T06:47:38;20.90;;;9.10;;
19251;SDS011;9760;50.944;5.304;2023-04-24T06:50:04;17.53;;;9.13;;
19251;SDS011;9760;50.944;5.304;2023-04-24T06:52:31;19.67;;;8.47;;
19251;SDS011;9760;50.944;5.304;2023-04-24T06:55:00;20.20;;;9.03;;
19251;SDS011;9760;50.944;5.304;2023-04-24T06:57:27;21.20;;;9.43;;
19251;SDS011;9760;50.944;5.304;2023-04-24T06:59:54;21.07;;;9.40;;
19251;SDS011;9760;50.944;5.304;2023-04-24T07:02:20;22.03;;;9.43;;
19251;SDS011;9760;50.944;5.304;2023-04-24T07:04:46;15.17;;;10.07;;
19251;SDS011;9760;50.944;5.304;2023-04-24T07:07:14;25.77;;;10.83;;
19251;SDS011;9760;50.944;5.304;2023-04-24T07:09:41;27.30;;;11.27;;
19251;SDS011;9760;50.944;5.304;2023-04-24T07:12:10;23.13;;;11.23;;
19251;SDS011;9760;50.944;5.304;2023-04-24T07:14:36;24.23;;;11.60;;
19251;SDS011;9760;50.944;5.304;2023-04-24T07:17:05;32.27;;;12.77;;
19251;SDS011;9760;50.944;5.304;2023-04-24T07:19:31;23.40;;;12.27;;
19251;SDS011;9760;50.944;5.304;2023-04-24T07:22:00;30.67;;;12.77;;
19251;SDS011;9760;50.944;5.304;2023-04-24T07:24:26;28.90;;;12.57;;
19251;SDS011;9760;50.944;5.304;2023-04-24T07:26:52;27.67;;;13.33;;
19251;SDS011;9760;50.944;5.304;2023-04-24T07:29:19;27.23;;;13.10;;
19251;SDS011;9760;50.944;5.304;2023-04-24T07:31:44;30.20;;;14.20;;
19251;SDS011;9760;50.944;5.304;2023-04-24T07:34:10;26.40;;;11.83;;
19251;SDS011;9760;50.944;5.304;2023-04-24T07:36:36;25.33;;;13.87;;
19251;SDS011;9760;50.944;5.304;2023-04-24T07:39:03;26.63;;;13.97;;
19251;SDS011;9760;50.944;5.304;2023-04-24T07:41:33;32.67;;;14.87;;
19251;SDS011;9760;50.944;5.304;2023-04-24T07:43:58;30.87;;;12.73;;
19251;SDS011;9760;50.944;5.304;2023-04-24T07:46:24;29.30;;;13.60;;
19251;SDS011;9760;50.944;5.304;2023-04-24T07:48:50;22.70;;;12.97;;
19251;SDS011;9760;50.944;5.304;2023-04-24T07:51:16;25.40;;;12.50;;
19251;SDS011;9760;50.944;5.304;2023-04-24T07:53:42;34.00;;;14.10;;
19251;SDS011;9760;50.944;5.304;2023-04-24T07:56:08;31.73;;;14.30;;
19251;SDS011;9760;50.944;5.304;2023-04-24T07:58:34;30.37;;;14.17;;
19251;SDS011;9760;50.944;5.304;2023-04-24T08:01:00;27.63;;;15.23;;
19251;SDS011;9760;50.944;5.304;2023-04-24T08:03:26;37.90;;;17.27;;
19251;SDS011;9760;50.944;5.304;2023-04-24T08:05:51;36.87;;;16.43;;
19251;SDS011;9760;50.944;5.304;2023-04-24T08:08:17;32.00;;;15.83;;
19251;SDS011;9760;50.944;5.304;2023-04-24T08:10:45;30.03;;;15.07;;
19251;SDS011;9760;50.944;5.304;2023-04-24T08:13:10;25.87;;;13.67;;
19251;SDS011;9760;50.944;5.304;2023-04-24T08:15:36;32.80;;;14.77;;
19251;SDS011;9760;50.944;5.304;2023-04-24T08:18:02;32.37;;;14.57;;
19251;SDS011;9760;50.944;5.304;2023-04-24T08:20:28;28.87;;;13.67;;
19251;SDS011;9760;50.944;5.304;2023-04-24T08:22:54;33.47;;;13.37;;
19251;SDS011;9760;50.944;5.304;2023-04-24T08:25:20;26.07;;;13.77;;
19251;SDS011;9760;50.944;5.304;2023-04-24T08:27:48;27.47;;;13.27;;
19251;SDS011;9760;50.944;5.304;2023-04-24T08:30:13;29.60;;;13.13;;
19251;SDS011;9760;50.944;5.304;2023-04-24T08:32:39;26.87;;;12.27;;
19251;SDS011;9760;50.944;5.304;2023-04-24T08:35:05;23.43;;;11.10;;
19251;SDS011;9760;50.944;5.304;2023-04-24T08:37:34;27.20;;;10.60;;
19251;SDS011;9760;50.944;5.304;2023-04-24T08:39:59;20.67;;;9.97;;
19251;SDS011;9760;50.944;5.304;2023-04-24T08:42:26;25.73;;;10.53;;
19251;SDS011;9760;50.944;5.304;2023-04-24T08:44:56;27.97;;;10.10;;
19251;SDS011;9760;50.944;5.304;2023-04-24T08:47:22;18.77;;;8.90;;
19251;SDS011;9760;50.944;5.304;2023-04-24T08:49:49;27.30;;;8.97;;
19251;SDS011;9760;50.944;5.304;2023-04-24T08:52:16;16.53;;;7.23;;
19251;SDS011;9760;50.944;5.304;2023-04-24T08:54:42;19.77;;;6.17;;
19251;SDS011;9760;50.944;5.304;2023-04-24T08:57:10;17.13;;;6.80;;
19251;SDS011;9760;50.944;5.304;2023-04-24T08:59:38;15.47;;;6.03;;
19251;SDS011;9760;50.944;5.304;2023-04-24T09:02:04;17.43;;;7.03;;
19251;SDS011;9760;50.944;5.304;2023-04-24T09:04:31;14.00;;;6.03;;
19251;SDS011;9760;50.944;5.304;2023-04-24T09:06:59;22.60;;;6.33;;
19251;SDS011;9760;50.944;5.304;2023-04-24T09:09:25;18.80;;;6.33;;
19251;SDS011;9760;50.944;5.304;2023-04-24T09:11:56;13.07;;;5.73;;
19251;SDS011;9760;50.944;5.304;2023-04-24T09:14:23;21.23;;;5.90;;
19251;SDS011;9760;50.944;5.304;2023-04-24T09:16:49;21.13;;;6.03;;
19251;SDS011;9760;50.944;5.304;2023-04-24T09:19:15;19.50;;;6.50;;
19251;SDS011;9760;50.944;5.304;2023-04-24T09:21:41;19.50;;;5.80;;
19251;SDS011;9760;50.944;5.304;2023-04-24T09:24:18;19.10;;;5.87;;
19251;SDS011;9760;50.944;5.304;2023-04-24T09:26:47;15.27;;;7.07;;
19251;SDS011;9760;50.944;5.304;2023-04-24T09:29:15;17.97;;;6.03;;
19251;SDS011;9760;50.944;5.304;2023-04-24T09:31:41;20.80;;;6.93;;
19251;SDS011;9760;50.944;5.304;2023-04-24T09:34:08;19.87;;;6.53;;
19251;SDS011;9760;50.944;5.304;2023-04-24T09:36:35;27.27;;;7.70;;
19251;SDS011;9760;50.944;5.304;2023-04-24T09:39:06;24.07;;;7.73;;
19251;SDS011;9760;50.944;5.304;2023-04-24T09:41:35;29.03;;;7.77;;
19251;SDS011;9760;50.944;5.304;2023-04-24T09:44:18;20.90;;;7.83;;
19251;SDS011;9760;50.944;5.304;2023-04-24T09:46:51;22.00;;;7.87;;
19251;SDS011;9760;50.944;5.304;2023-04-24T09:49:23;22.83;;;8.20;;
19251;SDS011;9760;50.944;5.304;2023-04-24T09:51:50;22.53;;;8.43;;
19251;SDS011;9760;50.944;5.304;2023-04-24T09:54:17;20.30;;;7.47;;
19251;SDS011;9760;50.944;5.304;2023-04-24T09:56:48;22.23;;;7.13;;
19251;SDS011;9760;50.944;5.304;2023-04-24T09:59:17;19.90;;;5.97;;
19251;SDS011;9760;50.944;5.304;2023-04-24T10:01:44;15.63;;;6.63;;
19251;SDS011;9760;50.944;5.304;2023-04-24T10:04:17;18.17;;;7.13;;
19251;SDS011;9760;50.944;5.304;2023-04-24T10:06:44;21.40;;;7.40;;
19251;SDS011;9760;50.944;5.304;2023-04-24T10:09:10;21.07;;;8.10;;
19251;SDS011;9760;50.944;5.304;2023-04-24T10:11:40;17.20;;;6.20;;
19251;SDS011;9760;50.944;5.304;2023-04-24T10:14:09;19.17;;;5.83;;
19251;SDS011;9760;50.944;5.304;2023-04-24T10:16:37;16.83;;;5.30;;
19251;SDS011;9760;50.944;5.304;2023-04-24T10:19:05;18.87;;;5.27;;
19251;SDS011;9760;50.944;5.304;2023-04-24T10:21:32;9.87;;;4.70;;
19251;SDS011;9760;50.944;5.304;2023-04-24T10:23:59;16.00;;;5.73;;
19251;SDS011;9760;50.944;5.304;2023-04-24T10:26:28;18.57;;;6.20;;
19251;SDS011;9760;50.944;5.304;2023-04-24T10:28:54;12.10;;;5.57;;
19251;SDS011;9760;50.944;5.304;2023-04-24T10:31:23;15.70;;;5.70;;
19251;SDS011;9760;50.944;5.304;2023-04-24T10:33:50;16.23;;;5.73;;
19251;SDS011;9760;50.944;5.304;2023-04-24T10:36:17;21.63;;;6.27;;
19251;SDS011;9760;50.944;5.304;2023-04-24T10:38:44;26.17;;;6.60;;
19251;SDS011;9760;50.944;5.304;2023-04-24T10:41:12;14.67;;;6.30;;
19251;SDS011;9760;50.944;5.304;2023-04-24T10:43:44;15.83;;;6.30;;
19251;SDS011;9760;50.944;5.304;2023-04-24T10:46:10;19.87;;;6.40;;
19251;SDS011;9760;50.944;5.304;2023-04-24T10:48:44;16.27;;;5.60;;
19251;SDS011;9760;50.944;5.304;2023-04-24T10:51:18;12.37;;;5.77;;
19251;SDS011;9760;50.944;5.304;2023-04-24T10:53:47;16.00;;;5.97;;
19251;SDS011;9760;50.944;5.304;2023-04-24T10:56:17;17.80;;;6.27;;
19251;SDS011;9760;50.944;5.304;2023-04-24T10:58:44;33.00;;;11.20;;
19251;SDS011;9760;50.944;5.304;2023-04-24T11:01:29;34.80;;;10.63;;
19251;SDS011;9760;50.944;5.304;2023-04-24T11:03:58;42.60;;;12.67;;
19251;SDS011;9760;50.944;5.304;2023-04-24T11:06:28;43.90;;;14.83;;
19251;SDS011;9760;50.944;5.304;2023-04-24T11:08:58;21.37;;;7.70;;
19251;SDS011;9760;50.944;5.304;2023-04-24T11:11:28;23.27;;;8.40;;
19251;SDS011;9760;50.944;5.304;2023-04-24T11:21:42;21.80;;;6.77;;
19251;SDS011;9760;50.944;5.304;2023-04-24T11:26:51;30.33;;;12.13;;
19251;SDS011;9760;50.944;5.304;2023-04-24T11:29:22;27.70;;;8.83;;
19251;SDS011;9760;50.944;5.304;2023-04-24T11:31:48;23.20;;;6.70;;
19251;SDS011;9760;50.944;5.304;2023-04-24T11:34:16;17.33;;;5.40;;
19251;SDS011;9760;50.944;5.304;2023-04-24T11:36:43;10.57;;;4.37;;
19251;SDS011;9760;50.944;5.304;2023-04-24T11:39:10;12.67;;;5.20;;
19251;SDS011;9760;50.944;5.304;2023-04-24T11:41:36;17.70;;;6.00;;
19251;SDS011;9760;50.944;5.304;2023-04-24T11:44:02;13.93;;;5.93;;
19251;SDS011;9760;50.944;5.304;2023-04-24T11:46:30;12.47;;;5.10;;
19251;SDS011;9760;50.944;5.304;2023-04-24T11:48:57;12.17;;;4.80;;
19251;SDS011;9760;50.944;5.304;2023-04-24T11:51:24;12.57;;;4.83;;
19251;SDS011;9760;50.944;5.304;2023-04-24T11:53:51;16.13;;;5.53;;
19251;SDS011;9760;50.944;5.304;2023-04-24T11:56:21;12.80;;;5.20;;
19251;SDS011;9760;50.944;5.304;2023-04-24T11:58:48;14.13;;;4.73;;
19251;SDS011;9760;50.944;5.304;2023-04-24T12:01:14;10.67;;;4.13;;
19251;SDS011;9760;50.944;5.304;2023-04-24T12:03:40;8.60;;;4.07;;
19251;SDS011;9760;50.944;5.304;2023-04-24T12:06:09;11.07;;;4.53;;
19251;SDS011;9760;50.944;5.304;2023-04-24T12:08:36;12.60;;;4.13;;
19251;SDS011;9760;50.944;5.304;2023-04-24T12:11:03;12.87;;;4.70;;
19251;SDS011;9760;50.944;5.304;2023-04-24T12:13:32;12.83;;;4.03;;
19251;SDS011;9760;50.944;5.304;2023-04-24T12:15:58;12.70;;;3.27;;
19251;SDS011;9760;50.944;5.304;2023-04-24T12:18:25;7.40;;;3.23;;
19251;SDS011;9760;50.944;5.304;2023-04-24T12:20:51;8.60;;;3.00;;
19251;SDS011;9760;50.944;5.304;2023-04-24T12:23:27;6.17;;;2.97;;
19251;SDS011;9760;50.944;5.304;2023-04-24T12:26:00;13.67;;;3.10;;
19251;SDS011;9760;50.944;5.304;2023-04-24T12:28:33;10.40;;;4.00;;
19251;SDS011;9760;50.944;5.304;2023-04-24T12:31:00;12.63;;;3.90;;
19251;SDS011;9760;50.944;5.304;2023-04-24T12:33:27;8.70;;;4.10;;
19251;SDS011;9760;50.944;5.304;2023-04-24T12:35:52;8.77;;;3.83;;
19251;SDS011;9760;50.944;5.304;2023-04-24T12:38:21;10.90;;;3.50;;
19251;SDS011;9760;50.944;5.304;2023-04-24T12:41:00;15.60;;;5.07;;
19251;SDS011;9760;50.944;5.304;2023-04-24T12:43:29;14.60;;;4.33;;
19251;SDS011;9760;50.944;5.304;2023-04-24T12:45:54;8.50;;;3.60;;
19251;SDS011;9760;50.944;5.304;2023-04-24T12:48:20;10.20;;;3.60;;
19251;SDS011;9760;50.944;5.304;2023-04-24T12:50:47;11.57;;;3.87;;
19251;SDS011;9760;50.944;5.304;2023-04-24T12:53:12;10.97;;;3.97;;
19251;SDS011;9760;50.944;5.304;2023-04-24T12:55:39;12.57;;;3.33;;
19251;SDS011;9760;50.944;5.304;2023-04-24T12:58:05;9.37;;;3.00;;
19251;SDS011;9760;50.944;5.304;2023-04-24T13:00:30;8.57;;;3.77;;
19251;SDS011;9760;50.944;5.304;2023-04-24T13:02:56;12.83;;;3.47;;
19251;SDS011;9760;50.944;5.304;2023-04-24T13:05:22;11.17;;;2.67;;
19251;SDS011;9760;50.944;5.304;2023-04-24T13:07:47;7.93;;;3.37;;
19251;SDS011;9760;50.944;5.304;2023-04-24T13:10:13;10.27;;;3.50;;
19251;SDS011;9760;50.944;5.304;2023-04-24T13:12:39;7.10;;;3.07;;
19251;SDS011;9760;50.944;5.304;2023-04-24T13:15:05;9.07;;;3.27;;
19251;SDS011;9760;50.944;5.304;2023-04-24T13:17:32;10.13;;;2.93;;
19251;SDS011;9760;50.944;5.304;2023-04-24T13:19:58;8.50;;;3.10;;
19251;SDS011;9760;50.944;5.304;2023-04-24T13:22:23;7.87;;;3.30;;
19251;SDS011;9760;50.944;5.304;2023-04-24T13:24:50;12.53;;;3.47;;
19251;SDS011;9760;50.944;5.304;2023-04-24T13:27:16;14.70;;;3.70;;
19251;SDS011;9760;50.944;5.304;2023-04-24T13:29:42;8.20;;;3.20;;
19251;SDS011;9760;50.944;5.304;2023-04-24T13:32:08;10.70;;;3.40;;
19251;SDS011;9760;50.944;5.304;2023-04-24T13:34:34;11.20;;;3.80;;
19251;SDS011;9760;50.944;5.304;2023-04-24T13:37:00;9.27;;;3.30;;
19251;SDS011;9760;50.944;5.304;2023-04-24T13:39:26;10.63;;;3.33;;
19251;SDS011;9760;50.944;5.304;2023-04-24T13:41:52;10.20;;;3.77;;
19251;SDS011;9760;50.944;5.304;2023-04-24T13:44:19;9.70;;;4.03;;
19251;SDS011;9760;50.944;5.304;2023-04-24T13:46:46;9.57;;;4.03;;
19251;SDS011;9760;50.944;5.304;2023-04-24T13:49:13;10.43;;;4.00;;
19251;SDS011;9760;50.944;5.304;2023-04-24T13:51:40;12.83;;;3.83;;
19251;SDS011;9760;50.944;5.304;2023-04-24T13:54:06;12.77;;;3.37;;
19251;SDS011;9760;50.944;5.304;2023-04-24T13:56:32;10.07;;;3.50;;
19251;SDS011;9760;50.944;5.304;2023-04-24T13:58:58;12.77;;;3.30;;
19251;SDS011;9760;50.944;5.304;2023-04-24T14:01:24;9.80;;;3.73;;
19251;SDS011;9760;50.944;5.304;2023-04-24T14:03:53;6.37;;;3.07;;
19251;SDS011;9760;50.944;5.304;2023-04-24T14:06:19;8.93;;;2.70;;
19251;SDS011;9760;50.944;5.304;2023-04-24T14:08:46;8.57;;;3.03;;
19251;SDS011;9760;50.944;5.304;2023-04-24T14:11:12;9.53;;;3.30;;
19251;SDS011;9760;50.944;5.304;2023-04-24T14:13:38;7.63;;;3.00;;
19251;SDS011;9760;50.944;5.304;2023-04-24T14:16:05;11.23;;;3.20;;
19251;SDS011;9760;50.944;5.304;2023-04-24T14:18:31;8.87;;;2.50;;
19251;SDS011;9760;50.944;5.304;2023-04-24T14:20:57;8.87;;;2.73;;
19251;SDS011;9760;50.944;5.304;2023-04-24T14:23:23;7.47;;;2.90;;
19251;SDS011;9760;50.944;5.304;2023-04-24T14:25:49;9.50;;;3.13;;
19251;SDS011;9760;50.944;5.304;2023-04-24T14:28:17;6.40;;;2.83;;
19251;SDS011;9760;50.944;5.304;2023-04-24T14:30:45;12.13;;;3.20;;
19251;SDS011;9760;50.944;5.304;2023-04-24T14:33:11;8.07;;;2.60;;
19251;SDS011;9760;50.944;5.304;2023-04-24T14:35:37;7.30;;;2.60;;
19251;SDS011;9760;50.944;5.304;2023-04-24T14:38:03;8.73;;;3.53;;
19251;SDS011;9760;50.944;5.304;2023-04-24T14:40:29;10.80;;;3.10;;
19251;SDS011;9760;50.944;5.304;2023-04-24T14:42:56;8.37;;;2.53;;
19251;SDS011;9760;50.944;5.304;2023-04-24T14:45:23;8.90;;;3.03;;
19251;SDS011;9760;50.944;5.304;2023-04-24T14:47:49;6.73;;;2.47;;
19251;SDS011;9760;50.944;5.304;2023-04-24T14:50:15;8.77;;;2.93;;